Bookmark and Share
Track history (hours):
 

Toby Tide

More information available from US FCC via Universal Licensing System and Coast Guard Vessel Documentation Center.

Last reported at 2012-Sep-05 18:33 UTC. Time now 2014-Apr-23 19:06 UTC.
Position N 34°09' W 119°12'.
Warning: this ship's position is years out of date!

Length 60 m; draft 3.4 m.

Type: Ship. MMSI: 368163000.

NotesDate/timePositionNaut miles runAvg speedWind from/ knotsBaromVisibWave heightAir tempDewpointWater temp
2012-Sep-05 18:33N 34°09' W 119°12'0 0.0
2012-Sep-05 17:23N 34°09' W 119°12'0 0.0
2012-Sep-05 16:23N 34°09' W 119°12'0 0.0
2012-Sep-05 11:23N 34°09' W 119°12'0 0.0
2012-Sep-05 09:32N 34°09' W 119°12'0 0.0
2012-Sep-05 08:32N 34°09' W 119°12'0 0.0
2012-Sep-05 07:32N 34°09' W 119°12'0 0.0
2012-Sep-05 06:29N 34°09' W 119°12'0 0.1
2012-Sep-05 04:36N 34°09' W 119°12'0 0.0
2012-Sep-05 03:33N 34°09' W 119°12'0 0.0
2012-Sep-05 02:24N 34°09' W 119°12'0 0.0
2012-Sep-05 01:33N 34°09' W 119°12'0 0.0
2012-Sep-05 00:33N 34°09' W 119°12'0 0.0
2012-Sep-04 22:30N 34°09' W 119°12'0 0.0
2012-Sep-04 21:33N 34°09' W 119°12'0 0.0
2012-Sep-04 20:33N 34°09' W 119°12'0 0.0
2012-Sep-04 19:30N 34°09' W 119°12'0 0.0
2012-Sep-04 18:30N 34°09' W 119°12'0 0.0
2012-Sep-04 17:33N 34°09' W 119°12'0 0.0
2012-Sep-04 16:33N 34°09' W 119°12'0 0.0
2012-Sep-04 15:30N 34°09' W 119°12'0 0.0
2012-Sep-04 14:33N 34°09' W 119°12'0 0.0
2012-Sep-04 13:33N 34°09' W 119°12'0 0.0
2012-Sep-04 11:23N 34°09' W 119°12'0 0.0
2012-Sep-04 10:32N 34°09' W 119°12'0 0.0
2012-Sep-04 09:29N 34°09' W 119°12'0 0.0
2012-Sep-04 08:32N 34°09' W 119°12'0 0.0
2012-Sep-04 07:26N 34°09' W 119°12'0 0.0
2012-Sep-04 06:32N 34°09' W 119°12'0 0.0
2012-Sep-04 04:32N 34°09' W 119°12'0 0.0
2012-Sep-04 03:32N 34°09' W 119°12'0 0.0
2012-Sep-04 02:29N 34°09' W 119°12'0 0.0
2012-Sep-04 01:32N 34°09' W 119°12'0 0.0
2012-Sep-04 00:26N 34°09' W 119°12'0 0.0
2012-Sep-03 22:32N 34°09' W 119°12'0 0.0
2012-Sep-03 21:29N 34°09' W 119°12'0 0.0
2012-Sep-03 20:32N 34°09' W 119°12'0 0.0
2012-Sep-03 19:32N 34°09' W 119°12'0 0.1
2012-Sep-03 18:32N 34°09' W 119°12'0 0.0
2012-Sep-03 17:29N 34°09' W 119°12'0 0.0
2012-Sep-03 16:32N 34°09' W 119°12'0 0.0
2012-Sep-03 13:32N 34°09' W 119°12'0 0.0
2012-Sep-03 02:26N 34°09' W 119°12'0 0.0
2012-Aug-31 23:33N 34°09' W 119°12'0 0.0
2012-Aug-31 22:33N 34°09' W 119°12'0 0.0
2012-Aug-31 17:33N 34°09' W 119°12'1 0.1
2012-Aug-31 08:29N 34°08' W 119°13'9 9.1
2012-Aug-31 07:33N 34°02' W 119°05'9 9.5
2012-Aug-31 06:34N 33°57' W 118°56'10 9.8
2012-Aug-31 05:33N 33°52' W 118°45'9 9.7
2012-Aug-31 04:36N 33°48' W 118°36'18 8.9
2012-Aug-31 02:34N 33°42' W 118°15'0 0.1
2012-Aug-30 23:33N 33°43' W 118°15'8 8.4
2012-Aug-30 22:33N 33°42' W 118°25'1010.2
2012-Aug-30 21:33N 33°46' W 118°36'1110.1
2012-Aug-30 20:31N 33°52' W 118°47'1010.1
2012-Aug-30 19:33N 33°57' W 118°57'1110.6
2012-Aug-30 18:32N 34°03' W 119°08'7 6.4
2012-Aug-30 17:24N 34°09' W 119°12'0 0.0
2012-Aug-30 16:33N 34°09' W 119°12'0 0.0
2012-Aug-30 15:33N 34°09' W 119°12'0 0.0
2012-Aug-30 14:27N 34°09' W 119°12'0 0.0
2012-Aug-30 09:30N 34°09' W 119°12'0 0.0
2012-Aug-30 08:24N 34°09' W 119°12'0 0.0
2012-Aug-30 06:30N 34°09' W 119°12'0 0.0
2012-Aug-29 23:33N 34°09' W 119°12'0 0.0
2012-Aug-29 22:32N 34°09' W 119°12'0 0.0
2012-Aug-28 16:31N 34°09' W 119°12'0 0.0
2012-Aug-28 06:31N 34°09' W 119°12'0 0.0
2012-Aug-28 05:31N 34°09' W 119°12'0 0.0
2012-Aug-28 02:25N 34°09' W 119°12'0 0.0
2012-Aug-28 00:28N 34°09' W 119°12'0 0.0
2012-Aug-27 23:28N 34°09' W 119°12'0 0.0
2012-Aug-27 19:28N 34°09' W 119°12'0 0.0
2012-Aug-27 18:28N 34°09' W 119°12'0 0.0
2012-Aug-27 11:31N 34°09' W 119°12'0 0.0
2012-Aug-27 10:34N 34°09' W 119°12'0 0.0
2012-Aug-27 09:33N 34°09' W 119°12'0 0.0
2012-Aug-27 04:33N 34°09' W 119°12'0 0.0
2012-Aug-27 03:27N 34°09' W 119°12'  

Dump ship's entire track history

sailing weather and tide predictions

Toby Tide — WDB7879 — position and weather